メインページ
METAR-TAF:

METAR-TAF

空港 :

マジュロ国際空港

マジュロ, マーシャル諸島

緯度: 07-04N, 経度: 171-17E, 海抜: 2m

現時点の気象観測

当レポートは5時間8分前の08:54(UTC)に作成
気温 28°C
湿度 84%
気圧 1011 hPa
視程: 24.1km
高度1500ftの雲はほとんどない
高度5000ftの雲は散在している
高度12000ftの千切れ雲あり
高度30000ftの曇り

METAR: PKMJ 240854Z 04006K 15SM FEW015 SCT050 BKN120 OVC300 28/25 A2984 RMK LAST

時間: 02:02 (14:02 UTC)

予報

当レポートは2時間30分前の11:32(UTC)に作成
予報は24日の 12時(UTC)から 25日の 12時(UTC)まで有効
の風 11kt
視程: 10km
高度1400ftの雲は散在している
高度1500ftの雲は散在している
高度12000ftの千切れ雲あり
近辺でにわか雨,

TAF: PKMJ 241132Z 2412/2512 08011KT P6SM VCSH SCT014 SCT015 BKN120

4,000以上の空港の気象観測と天気予報(METAR報とTAF報)

利用可能な観測所は地図上に黄色い丸と赤い丸で示す。

丸の上にカーソルを重ねると観測所名を参照できる。

次にクリックすると気象観測と天気予報を参照できる。

マップの切り替え:黒色「×」印の緑ボタンをクリックして拡大、「-」印の緑ボタンをクリックして縮小、緑色の三角印をクリックして隣りの地図に切り替え


METAR-TAF: